Forside
METAR-TAF:

METAR-TAF

Lufthavne :

Delaware County Airport (Johnson Field)

Muncie, Indiana, USA

Breddekreds: 40-14-03N, længdekreds: 085-23-37W, højde: 285 m

Aktuelle vejr

Denne rapport blev lavet for 53 minutter siden, kl. 16:53 UTC
Vind 8 kt fra sydvest med vindstød på up til 15 kt
Temperatur 8°C
Fugtighed 42%
Tryk 1018 hPa
Sigt: 16.1 km
Overskyet i en højde af 7000 ft

METAR: KMIE 231653Z 22008G15KT 10SM OVC070 08/M04 A3007 RMK AO2 SLP184 T00781039

Tid: 12:46 (17:46 UTC)


TAF: fraværende

Vejrobservationer og prognoser fra mere end 4000 lufthavne (METAR og TAF).

De gule og røde prikker repræsenterer de meteorologiske stationer.

Flyt musen over at se navnet på stationen.

Så klik over at se vejr observationer og prognoser.

At skifte det kort: Klik på de grønne knapper med et sort kors for at zoome ind; på den grønne knap med en bindestreg for at zoome ud; eller på de grønne pile for tilstødende kort.


METAR-TAF: